createdAt,value
2023-03-11T00:00:47.345Z,34.55
2023-03-11T00:01:35.729Z,34.57
2023-03-11T00:02:25.814Z,33.02
2023-03-11T00:03:15.887Z,35.05
2023-03-11T00:04:05.950Z,35.68
2023-03-11T00:04:55.980Z,35.59
2023-03-11T00:05:46.156Z,32.44
2023-03-11T00:06:36.076Z,36.29
2023-03-11T00:07:26.138Z,32.71
2023-03-11T00:08:16.400Z,32.99
2023-03-11T00:09:06.473Z,32.87
2023-03-11T00:09:56.509Z,32.49
2023-03-11T00:10:46.846Z,29.66
2023-03-11T00:11:36.905Z,31.25
2023-03-11T00:12:26.963Z,33.42
2023-03-11T00:13:17.261Z,34.14
2023-03-11T00:14:07.339Z,34.64
2023-03-11T00:14:57.377Z,32.97
2023-03-11T00:15:47.696Z,37.66
2023-03-11T00:16:37.901Z,35.20
2023-03-11T00:17:27.837Z,30.23
2023-03-11T00:18:18.147Z,29.01
2023-03-11T00:19:08.206Z,35.06
2023-03-11T00:19:58.242Z,38.27
2023-03-11T00:20:48.593Z,34.71
2023-03-11T00:21:38.633Z,42.20
2023-03-11T00:22:28.696Z,37.03
2023-03-11T00:23:19.014Z,38.32
2023-03-11T00:24:09.090Z,33.61
2023-03-11T00:24:59.122Z,30.42
2023-03-11T00:25:49.445Z,31.92
2023-03-11T00:26:39.517Z,30.90
2023-03-11T00:27:29.588Z,31.80
2023-03-11T00:28:19.911Z,27.05
2023-03-11T00:29:09.999Z,33.43
2023-03-11T00:30:00.028Z,25.88
2023-03-11T00:30:50.402Z,28.54
2023-03-11T00:31:40.407Z,29.31
2023-03-11T00:32:30.468Z,30.51
2023-03-11T00:33:20.511Z,30.20
2023-03-11T00:34:10.623Z,27.39
2023-03-11T00:35:00.617Z,26.76
2023-03-11T00:35:50.698Z,27.91
2023-03-11T00:36:40.756Z,30.54
2023-03-11T00:37:30.785Z,30.52
2023-03-11T00:38:20.894Z,27.30
2023-03-11T00:39:10.900Z,31.43
2023-03-11T00:40:01.195Z,26.07
2023-03-11T00:40:51.264Z,35.47
2023-03-11T00:41:41.323Z,32.34
2023-03-11T00:42:31.603Z,31.77
2023-03-11T00:43:21.685Z,30.29
2023-03-11T00:44:11.771Z,28.78
2023-03-11T00:45:02.060Z,30.37
2023-03-11T00:45:52.157Z,30.04
2023-03-11T00:46:42.203Z,31.04
2023-03-11T00:47:32.484Z,32.28
2023-03-11T00:48:22.546Z,29.55
2023-03-11T00:49:12.635Z,28.31
2023-03-11T00:50:02.956Z,27.75
2023-03-11T00:50:52.997Z,27.55
2023-03-11T00:51:43.012Z,29.49
2023-03-11T00:52:33.333Z,26.90
2023-03-11T00:53:23.433Z,30.90
2023-03-11T00:54:13.472Z,28.51
2023-03-11T00:55:03.494Z,27.65
2023-03-11T00:55:53.556Z,27.63
2023-03-11T00:56:43.626Z,25.00
2023-03-11T00:57:33.654Z,28.74
2023-03-11T00:58:23.703Z,29.10
2023-03-11T00:59:13.745Z,32.51
2023-03-11T01:00:03.782Z,29.97
2023-03-11T01:00:53.829Z,35.10
2023-03-11T01:01:44.224Z,31.38
2023-03-11T01:02:34.214Z,27.44
2023-03-11T01:03:24.284Z,32.34
2023-03-11T01:04:14.750Z,27.32
2023-03-11T01:05:04.676Z,25.97
2023-03-11T01:05:54.735Z,26.89
2023-03-11T01:06:45.826Z,27.45
2023-03-11T01:07:34.850Z,28.65
2023-03-11T01:08:24.904Z,32.33
2023-03-11T01:09:14.991Z,28.47
2023-03-11T01:10:05.028Z,28.19
2023-03-11T01:10:55.050Z,32.70
2023-03-11T01:11:45.332Z,29.50
2023-03-11T01:12:35.397Z,29.64
2023-03-11T01:13:25.469Z,30.46
2023-03-11T01:14:15.778Z,30.18
2023-03-11T01:15:05.836Z,30.39
2023-03-11T01:15:55.953Z,33.07
2023-03-11T01:16:46.216Z,31.97
2023-03-11T01:17:36.245Z,32.69
2023-03-11T01:18:26.321Z,31.04
2023-03-11T01:19:16.395Z,30.08
2023-03-11T01:20:06.455Z,30.11
2023-03-11T01:20:56.540Z,30.28
2023-03-11T01:21:46.580Z,28.07
2023-03-11T01:22:36.645Z,31.06
2023-03-11T01:23:26.714Z,32.40
2023-03-11T01:24:16.780Z,28.16
2023-03-11T01:25:06.856Z,32.86
2023-03-11T01:25:56.891Z,29.93
2023-03-11T01:26:47.085Z,33.69
2023-03-11T01:27:37.142Z,34.07
2023-03-11T01:28:27.213Z,33.47
2023-03-11T01:29:17.561Z,29.08
2023-03-11T01:30:07.587Z,31.95
2023-03-11T01:30:57.715Z,32.54
2023-03-11T01:31:47.700Z,29.75
2023-03-11T01:32:37.796Z,29.72
2023-03-11T01:33:27.835Z,34.11
2023-03-11T01:34:17.917Z,32.86
2023-03-11T01:35:07.960Z,33.78
2023-03-11T01:35:58.054Z,27.70
2023-03-11T01:36:48.086Z,34.51
2023-03-11T01:37:38.089Z,31.36
2023-03-11T01:38:28.386Z,35.09
2023-03-11T01:39:18.460Z,34.16
2023-03-11T01:40:08.494Z,34.34
2023-03-11T01:40:58.515Z,36.60
2023-03-11T01:41:48.589Z,33.36
2023-03-11T01:42:38.656Z,36.38
2023-03-11T01:43:28.749Z,36.32
2023-03-11T01:44:18.828Z,35.91
2023-03-11T01:45:08.864Z,31.41
2023-03-11T01:45:58.999Z,31.35
2023-03-11T01:46:49.037Z,32.07
2023-03-11T01:47:39.194Z,30.84
2023-03-11T01:48:29.261Z,32.40
2023-03-11T01:49:19.343Z,32.08
2023-03-11T01:50:09.628Z,29.62
2023-03-11T01:50:59.695Z,31.60
2023-03-11T01:51:49.782Z,30.71
2023-03-11T01:52:40.074Z,30.24
2023-03-11T01:53:30.119Z,30.91
2023-03-11T01:54:20.201Z,29.56
2023-03-11T01:55:10.487Z,35.67
2023-03-11T01:56:00.549Z,32.00
2023-03-11T01:56:50.618Z,34.54
2023-03-11T01:57:40.895Z,33.85
2023-03-11T01:58:30.974Z,32.97
2023-03-11T01:59:21.050Z,32.12
2023-03-11T02:00:11.338Z,29.91
2023-03-11T02:01:01.406Z,33.92
2023-03-11T02:01:51.504Z,30.85
2023-03-11T02:02:41.687Z,37.90
2023-03-11T02:03:31.564Z,34.84
2023-03-11T02:04:21.667Z,39.15
2023-03-11T02:05:11.693Z,31.55
2023-03-11T02:06:01.755Z,37.62
2023-03-11T02:06:54.023Z,36.96
2023-03-11T02:07:41.983Z,30.93
2023-03-11T02:08:32.045Z,33.66
2023-03-11T02:09:22.374Z,35.40
2023-03-11T02:10:12.401Z,33.89
2023-03-11T02:11:02.477Z,33.63
2023-03-11T02:11:52.798Z,30.56
2023-03-11T02:12:42.859Z,34.61
2023-03-11T02:13:32.938Z,31.92
2023-03-11T02:14:23.230Z,33.97
2023-03-11T02:15:13.253Z,31.07
2023-03-11T02:16:03.401Z,33.72
2023-03-11T02:16:53.374Z,31.40
2023-03-11T02:17:43.446Z,33.23
2023-03-11T02:18:33.515Z,36.92
2023-03-11T02:19:23.586Z,34.68
2023-03-11T02:20:13.664Z,33.58
2023-03-11T02:21:03.719Z,28.43
2023-03-11T02:21:53.794Z,36.55
2023-03-11T02:22:43.836Z,34.45
2023-03-11T02:23:34.063Z,35.07
2023-03-11T02:24:24.126Z,37.42
2023-03-11T02:25:14.155Z,38.03
2023-03-11T02:26:04.463Z,27.15
2023-03-11T02:26:54.549Z,34.10
2023-03-11T02:27:44.614Z,32.70
2023-03-11T02:28:34.897Z,33.54
2023-03-11T02:29:24.987Z,34.75
2023-03-11T02:30:15.028Z,32.66
2023-03-11T02:31:05.379Z,34.65
2023-03-11T02:31:55.500Z,31.28
2023-03-11T02:32:45.499Z,33.64
2023-03-11T02:33:35.779Z,33.45
2023-03-11T02:34:25.857Z,32.64
2023-03-11T02:35:15.896Z,34.44
2023-03-11T02:36:06.244Z,28.10
2023-03-11T02:36:56.295Z,31.53
2023-03-11T02:37:46.355Z,33.37
2023-03-11T02:38:36.663Z,31.72
2023-03-11T02:39:26.684Z,29.67
2023-03-11T02:40:16.719Z,27.86
2023-03-11T02:41:06.786Z,28.43
2023-03-11T02:41:56.860Z,25.34
2023-03-11T02:42:46.880Z,27.69
2023-03-11T02:43:36.950Z,30.49
2023-03-11T02:44:26.993Z,30.15
2023-03-11T02:45:17.023Z,29.49
2023-03-11T02:46:07.083Z,29.37
2023-03-11T02:46:57.182Z,28.36
2023-03-11T02:47:47.188Z,31.07
2023-03-11T02:48:37.257Z,27.37
2023-03-11T02:49:27.359Z,32.97
2023-03-11T02:50:17.390Z,28.60
2023-03-11T02:51:07.448Z,29.53
2023-03-11T02:51:57.515Z,31.86
2023-03-11T02:52:47.584Z,31.12
2023-03-11T02:53:37.657Z,30.05
2023-03-11T02:54:27.934Z,29.52
2023-03-11T02:55:17.956Z,28.32
2023-03-11T02:56:08.020Z,29.51
2023-03-11T02:56:58.355Z,31.15
2023-03-11T02:57:48.448Z,36.46
2023-03-11T02:58:38.488Z,35.40
2023-03-11T02:59:28.543Z,41.58
2023-03-11T03:00:18.594Z,37.14
2023-03-11T03:01:08.681Z,40.56
2023-03-11T03:01:58.679Z,40.04
2023-03-11T03:02:48.710Z,36.83
2023-03-11T03:03:38.795Z,36.65
2023-03-11T03:04:28.934Z,42.22
2023-03-11T03:05:18.892Z,38.81
2023-03-11T03:06:08.937Z,36.66
2023-03-11T03:06:58.974Z,37.87
2023-03-11T03:07:49.024Z,38.15
2023-03-11T03:08:39.063Z,35.82
2023-03-11T03:09:29.097Z,38.33
2023-03-11T03:10:19.204Z,40.43
2023-03-11T03:11:09.202Z,36.53
2023-03-11T03:11:59.278Z,33.71
2023-03-11T03:12:49.316Z,33.64
2023-03-11T03:13:39.402Z,35.88
2023-03-11T03:14:29.439Z,37.20
2023-03-11T03:15:19.479Z,37.42
2023-03-11T03:16:09.559Z,33.42
2023-03-11T03:16:59.706Z,34.16
2023-03-11T03:17:49.624Z,29.97
2023-03-11T03:18:39.697Z,36.80
2023-03-11T03:19:30.033Z,37.43
2023-03-11T03:20:20.069Z,39.27
2023-03-11T03:21:10.141Z,37.55
2023-03-11T03:22:00.213Z,39.49
2023-03-11T03:22:50.232Z,44.50
2023-03-11T03:23:40.312Z,45.11
2023-03-11T03:24:30.391Z,46.90
2023-03-11T03:25:20.434Z,44.81
2023-03-11T03:26:10.470Z,48.80
2023-03-11T03:27:00.526Z,40.09
2023-03-11T03:27:50.596Z,44.96
2023-03-11T03:28:40.936Z,48.35
2023-03-11T03:29:30.985Z,45.84
2023-03-11T03:30:21.018Z,48.10
2023-03-11T03:31:11.050Z,47.42
2023-03-11T03:32:01.246Z,42.12
2023-03-11T03:32:51.238Z,43.64
2023-03-11T03:33:41.253Z,41.21
2023-03-11T03:34:31.311Z,39.28
2023-03-11T03:35:21.324Z,40.58
2023-03-11T03:36:11.424Z,43.13
2023-03-11T03:37:01.452Z,38.33
2023-03-11T03:37:51.731Z,42.78
2023-03-11T03:38:41.808Z,35.61
2023-03-11T03:39:31.894Z,36.80
2023-03-11T03:40:22.189Z,37.42
2023-03-11T03:41:12.272Z,30.47
2023-03-11T03:42:02.315Z,36.78
2023-03-11T03:42:52.608Z,39.87
2023-03-11T03:43:42.674Z,38.59
2023-03-11T03:44:32.752Z,34.85
2023-03-11T03:45:23.045Z,32.39
2023-03-11T03:46:13.159Z,34.06
2023-03-11T03:47:03.191Z,36.87
2023-03-11T03:47:53.478Z,34.28
2023-03-11T03:48:43.545Z,29.80
2023-03-11T03:49:33.619Z,29.05
2023-03-11T03:50:23.659Z,28.75
2023-03-11T03:51:13.686Z,28.93
2023-03-11T03:52:03.731Z,29.77
2023-03-11T03:52:53.799Z,29.24
2023-03-11T03:53:43.892Z,32.21
2023-03-11T03:54:33.950Z,27.56
2023-03-11T03:55:23.988Z,28.67
2023-03-11T03:56:14.072Z,26.42
2023-03-11T03:57:04.308Z,28.10
2023-03-11T03:57:54.367Z,25.14
2023-03-11T03:58:44.434Z,25.26
2023-03-11T03:59:34.734Z,26.07
2023-03-11T04:00:24.767Z,26.57
2023-03-11T04:01:14.832Z,32.43
2023-03-11T04:02:05.281Z,34.35
2023-03-11T04:02:55.317Z,33.87
2023-03-11T04:03:45.355Z,26.46
2023-03-11T04:04:35.608Z,31.20
2023-03-11T04:05:25.635Z,32.60
2023-03-11T04:06:15.706Z,31.14
2023-03-11T04:07:06.038Z,26.77
2023-03-11T04:07:56.104Z,27.99
2023-03-11T04:08:46.183Z,34.58
2023-03-11T04:09:36.487Z,34.64
2023-03-11T04:10:26.513Z,25.84
2023-03-11T04:11:16.578Z,36.90
2023-03-11T04:12:06.935Z,32.54
2023-03-11T04:12:56.980Z,31.95
2023-03-11T04:13:47.041Z,34.82
2023-03-11T04:14:37.343Z,37.77
2023-03-11T04:15:27.372Z,35.42
2023-03-11T04:16:17.489Z,35.46
2023-03-11T04:17:07.495Z,35.57
2023-03-11T04:17:57.539Z,36.50
2023-03-11T04:18:47.627Z,35.46
2023-03-11T04:19:37.662Z,39.69
2023-03-11T04:20:27.694Z,43.49
2023-03-11T04:21:17.727Z,42.40
2023-03-11T04:22:07.801Z,35.57
2023-03-11T04:22:57.862Z,39.38
2023-03-11T04:23:48.157Z,39.32
2023-03-11T04:24:38.197Z,38.99
2023-03-11T04:25:28.229Z,40.64
2023-03-11T04:26:18.288Z,39.95
2023-03-11T04:27:08.391Z,40.04
2023-03-11T04:27:58.424Z,37.02
2023-03-11T04:28:48.509Z,40.01
2023-03-11T04:29:38.555Z,41.62
2023-03-11T04:30:28.583Z,42.96
2023-03-11T04:31:18.671Z,42.23
2023-03-11T04:32:08.656Z,50.86
2023-03-11T04:32:58.935Z,43.82
2023-03-11T04:33:49.009Z,49.35
2023-03-11T04:34:39.045Z,42.74
2023-03-11T04:35:29.118Z,45.28
2023-03-11T04:36:19.099Z,46.26
2023-03-11T04:37:09.180Z,41.39
2023-03-11T04:37:59.234Z,44.26
2023-03-11T04:38:49.303Z,40.79
2023-03-11T04:39:39.390Z,43.51
2023-03-11T04:40:29.426Z,41.89
2023-03-11T04:41:19.483Z,45.11
2023-03-11T04:42:09.819Z,40.83
2023-03-11T04:42:59.906Z,44.67
2023-03-11T04:43:49.959Z,43.12
2023-03-11T04:44:40.259Z,39.63
2023-03-11T04:45:30.295Z,41.59
2023-03-11T04:46:20.373Z,43.36
2023-03-11T04:47:10.374Z,42.59
2023-03-11T04:48:00.440Z,42.94
2023-03-11T04:48:50.516Z,39.28
2023-03-11T04:49:40.596Z,39.20
2023-03-11T04:50:30.660Z,44.64
2023-03-11T04:51:20.681Z,40.35
2023-03-11T04:52:10.738Z,39.77
2023-03-11T04:53:00.809Z,34.19
2023-03-11T04:53:51.110Z,34.58
2023-03-11T04:54:41.197Z,34.73
2023-03-11T04:55:31.227Z,34.10
2023-03-11T04:56:21.553Z,42.35
2023-03-11T04:57:11.633Z,40.14
2023-03-11T04:58:01.652Z,38.00
2023-03-11T04:58:51.753Z,37.90
2023-03-11T04:59:41.812Z,40.49
2023-03-11T05:00:31.857Z,32.56
2023-03-11T05:01:21.935Z,34.37
2023-03-11T05:02:12.976Z,35.19
2023-03-11T05:03:02.051Z,37.20
2023-03-11T05:03:52.053Z,33.75
2023-03-11T05:04:42.255Z,33.60
2023-03-11T05:05:32.419Z,34.24
2023-03-11T05:06:22.494Z,37.89
2023-03-11T05:07:12.522Z,33.62
2023-03-11T05:08:02.599Z,33.78
2023-03-11T05:08:52.626Z,35.68
2023-03-11T05:09:42.719Z,32.53
2023-03-11T05:10:32.754Z,37.06
2023-03-11T05:11:22.824Z,36.82
2023-03-11T05:12:12.893Z,29.62
2023-03-11T05:13:02.951Z,33.22
2023-03-11T05:13:52.969Z,30.90
2023-03-11T05:14:43.318Z,31.20
2023-03-11T05:15:33.320Z,29.81
2023-03-11T05:16:23.477Z,31.39
2023-03-11T05:17:13.423Z,34.37
2023-03-11T05:18:03.497Z,28.96
2023-03-11T05:18:53.526Z,33.68
2023-03-11T05:19:43.627Z,30.31
2023-03-11T05:20:33.636Z,33.37
2023-03-11T05:21:23.708Z,31.29
2023-03-11T05:22:13.778Z,32.62
2023-03-11T05:23:03.855Z,31.46
2023-03-11T05:23:54.140Z,30.91
2023-03-11T05:24:44.228Z,30.94
2023-03-11T05:25:34.251Z,32.16
2023-03-11T05:26:24.605Z,29.76
2023-03-11T05:27:14.613Z,28.80
2023-03-11T05:28:04.695Z,33.17
2023-03-11T05:28:54.754Z,30.12
2023-03-11T05:29:44.888Z,31.48
2023-03-11T05:30:34.904Z,34.53
2023-03-11T05:31:25.057Z,30.61
2023-03-11T05:32:15.145Z,25.87
2023-03-11T05:33:05.080Z,27.87
2023-03-11T05:33:55.104Z,32.17
2023-03-11T05:34:45.207Z,27.40
2023-03-11T05:35:35.288Z,31.21
2023-03-11T05:36:25.281Z,31.01
2023-03-11T05:37:15.322Z,33.65
2023-03-11T05:38:05.362Z,33.82
2023-03-11T05:38:55.381Z,32.15
2023-03-11T05:39:45.517Z,33.13
2023-03-11T05:40:35.546Z,33.06
2023-03-11T05:41:25.623Z,30.24
2023-03-11T05:42:15.951Z,28.18
2023-03-11T05:43:06.084Z,28.99
2023-03-11T05:43:56.063Z,29.93
2023-03-11T05:44:46.127Z,32.78
2023-03-11T05:45:36.185Z,29.93
2023-03-11T05:46:26.275Z,33.12
2023-03-11T05:47:16.316Z,29.33
2023-03-11T05:48:06.397Z,31.18
2023-03-11T05:48:56.432Z,32.57
2023-03-11T05:49:46.510Z,33.79
2023-03-11T05:50:36.563Z,31.57
2023-03-11T05:51:26.800Z,25.84
2023-03-11T05:52:16.832Z,29.74
2023-03-11T05:53:06.905Z,31.66
2023-03-11T05:53:56.937Z,33.02
2023-03-11T05:54:47.014Z,34.43
2023-03-11T05:55:37.057Z,34.84
2023-03-11T05:56:27.109Z,31.11
2023-03-11T05:57:17.129Z,34.47
2023-03-11T05:58:07.217Z,32.01
2023-03-11T05:58:57.212Z,32.47
2023-03-11T05:59:47.295Z,34.25
2023-03-11T06:00:37.325Z,34.17
2023-03-11T06:01:27.429Z,30.17
2023-03-11T06:02:17.444Z,34.65
2023-03-11T06:03:07.513Z,30.70
2023-03-11T06:03:57.697Z,35.23
2023-03-11T06:04:47.749Z,32.77
2023-03-11T06:05:37.657Z,33.45
2023-03-11T06:06:27.745Z,36.27
2023-03-11T06:07:18.050Z,33.03
2023-03-11T06:08:08.103Z,35.41
2023-03-11T06:08:58.140Z,34.42
2023-03-11T06:09:48.189Z,33.20
2023-03-11T06:10:38.219Z,34.65
2023-03-11T06:11:28.343Z,34.82
2023-03-11T06:12:18.335Z,32.57
2023-03-11T06:13:08.377Z,35.87
2023-03-11T06:13:58.396Z,34.62
2023-03-11T06:14:48.490Z,31.16
2023-03-11T06:15:38.522Z,34.11
2023-03-11T06:16:29.811Z,34.47
2023-03-11T06:17:18.683Z,37.04
2023-03-11T06:18:08.753Z,37.09
2023-03-11T06:18:58.778Z,38.61
2023-03-11T06:19:48.874Z,37.02
2023-03-11T06:20:38.893Z,36.61
2023-03-11T06:21:28.967Z,37.38
2023-03-11T06:22:19.297Z,36.25
2023-03-11T06:23:09.374Z,36.99
2023-03-11T06:23:59.405Z,39.42
2023-03-11T06:24:49.763Z,37.79
2023-03-11T06:25:39.796Z,34.14
2023-03-11T06:26:29.832Z,35.49
2023-03-11T06:27:19.898Z,31.74
2023-03-11T06:28:09.977Z,33.09
2023-03-11T06:29:00.022Z,37.56
2023-03-11T06:29:50.117Z,35.09
2023-03-11T06:30:40.143Z,36.15
2023-03-11T06:31:30.283Z,33.08
2023-03-11T06:32:20.306Z,34.75
2023-03-11T06:33:10.340Z,34.99
2023-03-11T06:34:00.340Z,37.89
2023-03-11T06:34:50.444Z,38.76
2023-03-11T06:35:40.495Z,40.37
2023-03-11T06:36:30.517Z,38.52
2023-03-11T06:37:20.556Z,38.40
2023-03-11T06:38:10.596Z,38.59
2023-03-11T06:39:00.615Z,40.67
2023-03-11T06:39:50.721Z,39.25
2023-03-11T06:40:40.751Z,39.03
2023-03-11T06:41:30.813Z,43.40
2023-03-11T06:42:20.844Z,39.79
2023-03-11T06:43:10.923Z,41.31
2023-03-11T06:44:00.952Z,39.33
2023-03-11T06:44:51.053Z,41.44
2023-03-11T06:45:41.112Z,39.82
2023-03-11T06:46:31.155Z,39.40
2023-03-11T06:47:21.222Z,35.21
2023-03-11T06:48:11.260Z,35.80
2023-03-11T06:49:01.317Z,38.99
2023-03-11T06:49:51.381Z,39.25
2023-03-11T06:50:41.408Z,39.99
2023-03-11T06:51:31.492Z,37.68
2023-03-11T06:52:21.528Z,37.85
2023-03-11T06:53:11.600Z,36.22
2023-03-11T06:54:01.883Z,37.13
2023-03-11T06:54:51.978Z,37.84
2023-03-11T06:55:42.019Z,37.41
2023-03-11T06:56:32.343Z,38.98
2023-03-11T06:57:22.378Z,41.41
2023-03-11T06:58:12.458Z,41.21
2023-03-11T06:59:02.488Z,40.72
2023-03-11T06:59:52.587Z,40.71
2023-03-11T07:00:42.866Z,38.76
2023-03-11T07:01:32.808Z,37.76
2023-03-11T07:02:22.750Z,38.48
2023-03-11T07:03:12.825Z,41.07
2023-03-11T07:04:02.935Z,40.09
2023-03-11T07:04:52.986Z,35.63
2023-03-11T07:05:43.254Z,39.49
2023-03-11T07:06:33.308Z,40.08
2023-03-11T07:07:23.341Z,40.30
2023-03-11T07:08:13.418Z,39.29
2023-03-11T07:09:03.453Z,40.86
2023-03-11T07:09:53.550Z,43.94
2023-03-11T07:10:43.592Z,42.74
2023-03-11T07:11:33.667Z,44.99
2023-03-11T07:12:23.702Z,45.18
2023-03-11T07:13:14.126Z,40.37
2023-03-11T07:14:03.814Z,46.66
2023-03-11T07:14:54.125Z,43.77
2023-03-11T07:15:44.163Z,43.17
2023-03-11T07:16:34.261Z,44.36
2023-03-11T07:17:24.289Z,44.76
2023-03-11T07:18:14.427Z,41.91
2023-03-11T07:19:04.376Z,43.91
2023-03-11T07:19:54.422Z,42.91
2023-03-11T07:20:44.487Z,40.30
2023-03-11T07:21:34.587Z,42.37
2023-03-11T07:22:24.605Z,43.90
2023-03-11T07:23:15.295Z,44.40
2023-03-11T07:24:04.752Z,41.19
2023-03-11T07:24:54.853Z,43.50
2023-03-11T07:25:44.871Z,43.15
2023-03-11T07:26:34.953Z,43.55
2023-03-11T07:27:24.985Z,41.57
2023-03-11T07:28:15.314Z,43.36
2023-03-11T07:29:05.076Z,43.03
2023-03-11T07:29:55.183Z,44.08
2023-03-11T07:30:45.206Z,41.99
2023-03-11T07:31:35.274Z,42.87
2023-03-11T07:32:25.363Z,43.04
2023-03-11T07:33:15.375Z,34.99
2023-03-11T07:34:05.397Z,33.93
2023-03-11T07:34:55.498Z,37.40
2023-03-11T07:35:45.593Z,37.83
2023-03-11T07:36:35.630Z,39.16
2023-03-11T07:37:25.639Z,39.14
2023-03-11T07:38:15.714Z,41.57
2023-03-11T07:39:05.771Z,41.35
2023-03-11T07:39:55.795Z,38.92
2023-03-11T07:40:45.824Z,38.59
2023-03-11T07:41:35.957Z,40.12
2023-03-11T07:42:25.951Z,40.95
2023-03-11T07:43:16.139Z,42.69
2023-03-11T07:44:07.146Z,41.39
2023-03-11T07:44:56.393Z,42.34
2023-03-11T07:45:46.480Z,40.85
2023-03-11T07:46:36.504Z,41.63
2023-03-11T07:47:26.627Z,44.57
2023-03-11T07:48:17.043Z,42.96
2023-03-11T07:49:06.611Z,42.34
2023-03-11T07:49:57.391Z,41.79
2023-03-11T07:50:46.758Z,41.34
2023-03-11T07:51:36.798Z,39.26
2023-03-11T07:52:26.853Z,38.39
2023-03-11T07:53:16.873Z,40.94
2023-03-11T07:54:06.908Z,41.25
2023-03-11T07:54:56.948Z,37.76
2023-03-11T07:55:46.996Z,38.09
2023-03-11T07:56:37.049Z,38.99
2023-03-11T07:57:27.110Z,36.85
2023-03-11T07:58:17.187Z,34.87
2023-03-11T07:59:07.225Z,35.24
2023-03-11T07:59:57.570Z,35.90
2023-03-11T08:00:47.602Z,37.66
2023-03-11T08:01:37.652Z,37.86
2023-03-11T08:02:27.716Z,37.70
2023-03-11T08:03:17.748Z,38.68
2023-03-11T08:04:07.806Z,39.49
2023-03-11T08:04:57.832Z,35.03
2023-03-11T08:05:47.958Z,37.67
2023-03-11T08:06:37.970Z,41.98
2023-03-11T08:07:28.043Z,40.75
2023-03-11T08:08:18.100Z,39.24
2023-03-11T08:09:08.117Z,38.90
2023-03-11T08:09:58.152Z,41.99
2023-03-11T08:10:48.256Z,37.73
2023-03-11T08:11:38.300Z,39.78
2023-03-11T08:12:28.330Z,39.99
2023-03-11T08:13:18.373Z,37.12
2023-03-11T08:14:08.412Z,45.48
2023-03-11T08:14:58.444Z,45.45
2023-03-11T08:15:48.606Z,45.16
2023-03-11T08:16:38.575Z,40.78
2023-03-11T08:17:28.658Z,39.19
2023-03-11T08:18:18.688Z,34.62
2023-03-11T08:19:08.765Z,34.24
2023-03-11T08:19:58.836Z,40.37
2023-03-11T08:20:48.931Z,42.15
2023-03-11T08:21:38.973Z,43.50
2023-03-11T08:22:29.301Z,42.21
2023-03-11T08:23:19.360Z,43.74
2023-03-11T08:24:09.417Z,44.65
2023-03-11T08:24:59.448Z,40.39
2023-03-11T08:25:49.508Z,41.26
2023-03-11T08:26:39.538Z,35.54
2023-03-11T08:27:29.613Z,40.17
2023-03-11T08:28:19.686Z,40.70
2023-03-11T08:29:09.727Z,38.81
2023-03-11T08:29:59.755Z,40.68
2023-03-11T08:30:49.906Z,41.13
2023-03-11T08:31:40.154Z,39.26
2023-03-11T08:32:30.226Z,38.80
2023-03-11T08:33:20.251Z,39.89
2023-03-11T08:34:10.310Z,39.74
2023-03-11T08:35:00.389Z,40.19
2023-03-11T08:35:50.484Z,39.07
2023-03-11T08:36:40.530Z,41.51
2023-03-11T08:37:30.596Z,43.36
2023-03-11T08:38:20.688Z,42.55
2023-03-11T08:39:10.862Z,42.26
2023-03-11T08:40:00.829Z,40.37
2023-03-11T08:40:51.194Z,35.24
2023-03-11T08:41:41.212Z,36.63
2023-03-11T08:42:31.295Z,36.58
2023-03-11T08:43:21.338Z,37.72
2023-03-11T08:44:11.407Z,35.95
2023-03-11T08:45:01.437Z,38.01
2023-03-11T08:45:51.504Z,34.42
2023-03-11T08:46:41.608Z,32.21
2023-03-11T08:47:31.609Z,30.84
2023-03-11T08:48:21.634Z,30.33
2023-03-11T08:49:11.731Z,32.87
2023-03-11T08:50:01.744Z,37.79
2023-03-11T08:50:54.587Z,43.93
2023-03-11T08:51:41.883Z,42.99
2023-03-11T08:52:31.970Z,42.10
2023-03-11T08:53:22.034Z,40.24
2023-03-11T08:54:12.093Z,41.15
2023-03-11T08:55:02.187Z,37.97
2023-03-11T08:55:52.258Z,37.11
2023-03-11T08:56:42.307Z,38.24
2023-03-11T08:57:32.480Z,42.41
2023-03-11T08:58:22.509Z,40.92
2023-03-11T08:59:12.591Z,40.78
2023-03-11T09:00:02.622Z,40.00
2023-03-11T09:00:52.672Z,38.20
2023-03-11T09:01:42.767Z,31.15
2023-03-11T09:02:32.804Z,36.06
2023-03-11T09:03:22.824Z,37.00
2023-03-11T09:04:12.886Z,37.64
2023-03-11T09:05:02.935Z,37.03
2023-03-11T09:05:53.041Z,34.70
2023-03-11T09:06:43.027Z,34.01
2023-03-11T09:07:33.120Z,39.35
2023-03-11T09:08:23.175Z,38.42
2023-03-11T09:09:13.260Z,32.58
2023-03-11T09:10:03.286Z,37.81
2023-03-11T09:10:53.422Z,34.54
2023-03-11T09:11:43.431Z,33.89
2023-03-11T09:12:33.471Z,34.92
2023-03-11T09:13:23.716Z,33.66
2023-03-11T09:14:13.791Z,37.81
2023-03-11T09:15:03.838Z,34.94
2023-03-11T09:15:53.985Z,33.07
2023-03-11T09:16:43.906Z,34.15
2023-03-11T09:17:33.999Z,39.89
2023-03-11T09:18:24.022Z,43.32
2023-03-11T09:19:14.094Z,38.65
2023-03-11T09:20:04.172Z,40.72
2023-03-11T09:20:54.261Z,42.10
2023-03-11T09:21:44.286Z,39.51
2023-03-11T09:22:34.627Z,42.49
2023-03-11T09:23:24.658Z,36.64
2023-03-11T09:24:14.685Z,40.37
2023-03-11T09:25:04.717Z,34.34
2023-03-11T09:25:54.844Z,32.43
2023-03-11T09:26:44.872Z,36.29
2023-03-11T09:27:34.931Z,40.74
2023-03-11T09:28:24.953Z,41.30
2023-03-11T09:29:15.018Z,38.43
2023-03-11T09:30:05.082Z,37.89
2023-03-11T09:30:55.177Z,36.71
2023-03-11T09:31:45.596Z,38.90
2023-03-11T09:32:35.567Z,37.92
2023-03-11T09:33:25.595Z,35.35
2023-03-11T09:34:16.251Z,35.59
2023-03-11T09:35:05.670Z,39.07
2023-03-11T09:35:55.805Z,40.44
2023-03-11T09:36:45.793Z,41.89
2023-03-11T09:37:35.882Z,42.07
2023-03-11T09:38:25.923Z,43.45
2023-03-11T09:39:15.992Z,39.17
2023-03-11T09:40:06.060Z,41.89
2023-03-11T09:40:56.170Z,38.55
2023-03-11T09:41:57.591Z,41.28
2023-03-11T09:42:37.284Z,38.98
2023-03-11T09:43:26.302Z,37.96
2023-03-11T09:44:16.373Z,41.63
2023-03-11T09:45:06.394Z,43.48
2023-03-11T09:45:56.498Z,44.63
2023-03-11T09:46:46.605Z,42.02
2023-03-11T09:47:36.625Z,38.74
2023-03-11T09:48:26.868Z,36.15
2023-03-11T09:49:16.947Z,38.70
2023-03-11T09:50:06.997Z,38.44
2023-03-11T09:50:57.052Z,32.99
2023-03-11T09:51:47.097Z,39.98
2023-03-11T09:52:37.125Z,42.18
2023-03-11T09:53:27.179Z,44.60
2023-03-11T09:54:17.228Z,43.80
2023-03-11T09:55:07.302Z,39.68
2023-03-11T09:55:57.411Z,39.17
2023-03-11T09:56:47.431Z,41.96
2023-03-11T09:57:37.468Z,42.59
2023-03-11T09:58:27.547Z,43.01
2023-03-11T09:59:17.572Z,37.83
2023-03-11T10:00:07.619Z,36.93
2023-03-11T10:00:57.658Z,40.01
2023-03-11T10:01:47.787Z,41.82
2023-03-11T10:02:37.962Z,44.09
2023-03-11T10:03:27.873Z,47.57
2023-03-11T10:04:18.211Z,43.82
2023-03-11T10:05:08.239Z,42.74
2023-03-11T10:05:58.306Z,41.60
2023-03-11T10:06:48.378Z,42.74
2023-03-11T10:07:38.409Z,39.14
2023-03-11T10:08:28.438Z,39.28
2023-03-11T10:09:18.522Z,36.58
2023-03-11T10:10:08.544Z,38.37
2023-03-11T10:10:58.610Z,32.41
2023-03-11T10:11:48.693Z,37.13
2023-03-11T10:12:38.732Z,35.05
2023-03-11T10:13:28.811Z,36.25
2023-03-11T10:14:18.858Z,36.00
2023-03-11T10:15:08.925Z,35.55
2023-03-11T10:15:59.005Z,35.46
2023-03-11T10:16:49.054Z,38.46
2023-03-11T10:17:39.314Z,37.47
2023-03-11T10:18:29.408Z,36.21
2023-03-11T10:19:19.392Z,33.76
2023-03-11T10:20:09.440Z,30.36
2023-03-11T10:20:59.474Z,34.34
2023-03-11T10:21:49.524Z,35.30
2023-03-11T10:22:39.557Z,34.20
2023-03-11T10:23:29.598Z,37.38
2023-03-11T10:24:19.668Z,32.64
2023-03-11T10:25:09.726Z,33.22
2023-03-11T10:25:59.800Z,32.64
2023-03-11T10:26:49.840Z,30.90
2023-03-11T10:27:41.897Z,31.36
2023-03-11T10:28:29.949Z,31.59
2023-03-11T10:29:20.034Z,31.28
2023-03-11T10:30:10.070Z,31.98
2023-03-11T10:31:00.160Z,32.18
2023-03-11T10:31:50.316Z,32.95
2023-03-11T10:32:40.299Z,34.38
2023-03-11T10:33:30.332Z,38.30
2023-03-11T10:34:20.482Z,33.46
2023-03-11T10:35:10.472Z,28.97
2023-03-11T10:36:00.737Z,29.75
2023-03-11T10:36:50.744Z,36.29
2023-03-11T10:37:49.476Z,31.58
2023-03-11T10:38:31.851Z,31.64
2023-03-11T10:39:20.901Z,31.97
2023-03-11T10:40:10.918Z,32.76
2023-03-11T10:41:00.985Z,34.39
2023-03-11T10:41:51.070Z,37.30
2023-03-11T10:42:41.095Z,30.97
2023-03-11T10:43:31.115Z,37.66
2023-03-11T10:44:21.365Z,35.40
2023-03-11T10:45:11.413Z,32.18